createdAt,value
2023-01-05T00:01:46.917Z,13.09
2023-01-05T00:04:14.275Z,12.89
2023-01-05T00:06:42.139Z,12.97
2023-01-05T00:09:14.321Z,12.70
2023-01-05T00:11:59.552Z,12.75
2023-01-05T00:14:49.227Z,12.83
2023-01-05T00:17:41.878Z,12.55
2023-01-05T00:20:36.240Z,12.99
2023-01-05T00:23:03.596Z,13.11
2023-01-05T00:25:34.357Z,12.89
2023-01-05T00:28:01.198Z,12.89
2023-01-05T00:30:33.239Z,12.91
2023-01-05T00:33:00.231Z,12.83
2023-01-05T00:35:27.213Z,12.80
2023-01-05T00:37:54.782Z,12.75
2023-01-05T00:40:22.607Z,12.74
2023-01-05T00:42:49.636Z,12.99
2023-01-05T00:45:18.898Z,12.98
2023-01-05T00:47:45.968Z,12.96
2023-01-05T00:50:17.103Z,12.90
2023-01-05T00:52:45.115Z,13.19
2023-01-05T00:55:12.268Z,13.16
2023-01-05T00:57:39.538Z,13.29
2023-01-05T01:00:11.441Z,13.23
2023-01-05T01:02:38.243Z,13.01
2023-01-05T01:05:06.137Z,12.87
2023-01-05T01:07:32.973Z,13.11
2023-01-05T01:09:59.772Z,13.04
2023-01-05T01:12:26.629Z,12.93
2023-01-05T01:14:53.538Z,12.77
2023-01-05T01:17:20.478Z,13.07
2023-01-05T01:19:47.334Z,13.02
2023-01-05T01:22:14.642Z,12.87
2023-01-05T01:24:41.695Z,12.81
2023-01-05T01:27:08.633Z,13.11
2023-01-05T01:29:35.522Z,12.66
2023-01-05T01:32:02.359Z,12.85
2023-01-05T01:34:29.339Z,12.90
2023-01-05T01:36:56.728Z,12.46
2023-01-05T01:39:23.751Z,12.98
2023-01-05T01:41:50.655Z,13.04
2023-01-05T01:44:48.371Z,12.81
2023-01-05T01:47:32.128Z,12.74
2023-01-05T01:50:04.169Z,13.02
2023-01-05T01:52:32.909Z,12.93
2023-01-05T01:55:02.238Z,12.97
2023-01-05T01:57:29.451Z,13.07
2023-01-05T01:59:59.551Z,12.94
2023-01-05T02:02:28.669Z,12.94
2023-01-05T02:05:03.636Z,12.77
2023-01-05T02:07:34.858Z,12.67
2023-01-05T02:10:04.660Z,12.63
2023-01-05T02:13:05.001Z,12.90
2023-01-05T02:16:06.058Z,12.89
2023-01-05T02:18:40.340Z,13.02
2023-01-05T02:21:30.893Z,12.88
2023-01-05T02:25:02.159Z,13.19
2023-01-05T02:27:44.007Z,13.13
2023-01-05T02:30:43.081Z,12.95
2023-01-05T02:33:24.155Z,13.12
2023-01-05T02:36:36.526Z,13.30
2023-01-05T02:39:31.370Z,13.43
2023-01-05T02:42:14.432Z,13.04
2023-01-05T02:44:41.365Z,13.25
2023-01-05T02:47:28.270Z,13.14
2023-01-05T02:50:04.514Z,13.40
2023-01-05T02:53:14.626Z,13.23
2023-01-05T02:56:04.403Z,13.15
2023-01-05T02:58:49.435Z,13.31
2023-01-05T03:01:30.520Z,13.14
2023-01-05T03:04:07.560Z,12.99
2023-01-05T03:06:48.744Z,13.25
2023-01-05T03:09:19.981Z,12.88
2023-01-05T03:12:16.815Z,13.29
2023-01-05T03:14:50.485Z,13.04
2023-01-05T03:17:26.916Z,12.96
2023-01-05T03:19:55.518Z,12.87
2023-01-05T03:22:46.907Z,12.84
2023-01-05T03:25:36.765Z,13.08
2023-01-05T03:28:25.553Z,12.87
2023-01-05T03:31:23.017Z,12.91
2023-01-05T03:34:35.062Z,13.14
2023-01-05T03:37:08.774Z,13.09
2023-01-05T03:39:40.655Z,13.25
2023-01-05T03:42:09.359Z,13.14
2023-01-05T03:44:41.482Z,13.25
2023-01-05T03:47:08.297Z,12.83
2023-01-05T03:49:35.798Z,13.29
2023-01-05T03:52:02.684Z,13.19
2023-01-05T03:54:29.556Z,13.23
2023-01-05T03:56:56.414Z,13.28
2023-01-05T03:59:23.227Z,13.28
2023-01-05T04:01:50.167Z,12.98
2023-01-05T04:04:17.086Z,13.19
2023-01-05T04:06:43.891Z,13.00
2023-01-05T04:09:10.769Z,13.20
2023-01-05T04:11:37.559Z,13.22
2023-01-05T04:14:04.404Z,12.95
2023-01-05T04:16:31.328Z,12.85
2023-01-05T04:18:58.224Z,12.68
2023-01-05T04:21:25.106Z,12.93
2023-01-05T04:23:51.930Z,12.95
2023-01-05T04:26:18.769Z,13.12
2023-01-05T04:28:45.603Z,13.06
2023-01-05T04:31:12.578Z,13.04
2023-01-05T04:33:40.086Z,12.96
2023-01-05T04:36:08.275Z,12.76
2023-01-05T04:38:35.141Z,12.84
2023-01-05T04:41:01.979Z,12.67
2023-01-05T04:43:28.816Z,12.94
2023-01-05T04:45:55.781Z,12.36
2023-01-05T04:48:22.772Z,12.94
2023-01-05T04:50:55.443Z,13.04
2023-01-05T04:53:23.296Z,13.23
2023-01-05T04:55:51.428Z,13.08
2023-01-05T04:58:19.076Z,12.98
2023-01-05T05:00:46.027Z,13.25
2023-01-05T05:03:12.972Z,13.00
2023-01-05T05:05:39.896Z,13.25
2023-01-05T05:08:06.739Z,13.04
2023-01-05T05:10:33.510Z,13.15
2023-01-05T05:13:00.358Z,12.97
2023-01-05T05:15:27.418Z,13.25
2023-01-05T05:17:54.261Z,13.23
2023-01-05T05:20:21.067Z,13.05
2023-01-05T05:22:47.910Z,13.30
2023-01-05T05:25:14.769Z,13.02
2023-01-05T05:27:41.663Z,13.15
2023-01-05T05:30:09.234Z,13.21
2023-01-05T05:32:40.888Z,13.17
2023-01-05T05:35:10.813Z,12.77
2023-01-05T05:37:37.677Z,12.83
2023-01-05T05:40:05.400Z,13.11
2023-01-05T05:42:32.335Z,13.24
2023-01-05T05:44:59.146Z,13.02
2023-01-05T05:47:25.997Z,13.22
2023-01-05T05:49:52.812Z,13.11
2023-01-05T05:52:19.694Z,13.10
2023-01-05T05:54:46.515Z,13.30
2023-01-05T05:57:13.340Z,13.23
2023-01-05T05:59:40.185Z,13.36
2023-01-05T06:02:07.139Z,13.27
2023-01-05T06:04:34.027Z,13.46
2023-01-05T06:07:00.986Z,13.50
2023-01-05T06:09:27.822Z,13.23
2023-01-05T06:11:54.919Z,13.60
2023-01-05T06:14:21.855Z,13.49
2023-01-05T06:16:49.756Z,13.41
2023-01-05T06:19:16.673Z,13.46
2023-01-05T06:21:43.519Z,13.54
2023-01-05T06:24:10.376Z,13.09
2023-01-05T06:26:37.253Z,12.95
2023-01-05T06:29:04.138Z,13.15
2023-01-05T06:31:31.044Z,13.05
2023-01-05T06:33:57.847Z,13.21
2023-01-05T06:36:24.719Z,13.10
2023-01-05T06:38:51.563Z,13.28
2023-01-05T06:41:18.410Z,13.05
2023-01-05T06:43:45.456Z,13.20
2023-01-05T06:46:13.251Z,13.25
2023-01-05T06:48:40.199Z,13.24
2023-01-05T06:51:07.095Z,13.09
2023-01-05T06:53:33.980Z,13.17
2023-01-05T06:56:00.838Z,13.13
2023-01-05T06:58:27.660Z,13.15
2023-01-05T07:00:55.062Z,13.14
2023-01-05T07:03:23.715Z,12.97
2023-01-05T07:05:51.566Z,13.06
2023-01-05T07:08:18.450Z,13.14
2023-01-05T07:10:45.309Z,12.93
2023-01-05T07:13:12.217Z,13.07
2023-01-05T07:15:39.214Z,12.97
2023-01-05T07:18:06.079Z,13.16
2023-01-05T07:20:32.939Z,13.07
2023-01-05T07:22:59.817Z,12.97
2023-01-05T07:25:31.316Z,13.21
2023-01-05T07:27:58.671Z,13.28
2023-01-05T07:30:25.583Z,13.19
2023-01-05T07:32:52.408Z,13.25
2023-01-05T07:35:19.208Z,13.24
2023-01-05T07:37:46.104Z,13.13
2023-01-05T07:40:13.053Z,13.15
2023-01-05T07:42:39.873Z,12.89
2023-01-05T07:45:07.476Z,13.05
2023-01-05T07:47:34.427Z,13.08
2023-01-05T07:50:01.936Z,13.00
2023-01-05T07:52:30.633Z,13.14
2023-01-05T07:54:58.312Z,13.06
2023-01-05T07:57:25.160Z,13.06
2023-01-05T07:59:51.992Z,13.15
2023-01-05T08:02:18.943Z,13.20
2023-01-05T08:04:46.842Z,13.23
2023-01-05T08:07:15.687Z,13.21
2023-01-05T08:10:01.445Z,13.04
2023-01-05T08:12:30.329Z,13.08
2023-01-05T08:14:57.354Z,13.04
2023-01-05T08:17:24.182Z,12.69
2023-01-05T08:19:51.005Z,12.96
2023-01-05T08:22:17.932Z,13.14
2023-01-05T08:24:44.741Z,12.81
2023-01-05T08:27:11.620Z,13.04
2023-01-05T08:29:38.445Z,13.07
2023-01-05T08:32:05.681Z,12.78
2023-01-05T08:34:34.914Z,12.90
2023-01-05T08:37:02.122Z,12.85
2023-01-05T08:39:28.972Z,12.91
2023-01-05T08:42:02.121Z,12.76
2023-01-05T08:44:29.523Z,12.92
2023-01-05T08:46:56.356Z,12.94
2023-01-05T08:49:24.134Z,12.76
2023-01-05T08:51:50.992Z,12.72
2023-01-05T08:54:17.832Z,12.77
2023-01-05T08:56:44.754Z,12.90
2023-01-05T08:59:14.986Z,12.98
2023-01-05T09:01:42.365Z,13.06
2023-01-05T09:04:09.285Z,12.87
2023-01-05T09:06:36.113Z,12.80
2023-01-05T09:09:03.417Z,13.10
2023-01-05T09:11:30.362Z,12.91
2023-01-05T09:13:59.495Z,12.89
2023-01-05T09:19:17.601Z,12.93
2023-01-05T09:21:44.833Z,13.02
2023-01-05T09:24:12.977Z,12.84
2023-01-05T09:26:41.242Z,12.89
2023-01-05T09:29:09.147Z,12.92
2023-01-05T09:31:36.042Z,13.20
2023-01-05T09:34:03.007Z,13.19
2023-01-05T09:36:29.934Z,13.15
2023-01-05T09:38:57.080Z,13.11
2023-01-05T09:41:47.763Z,13.13
2023-01-05T09:44:37.240Z,12.85
2023-01-05T09:47:27.329Z,12.94
2023-01-05T09:49:55.875Z,13.23
2023-01-05T09:52:23.052Z,13.15
2023-01-05T09:54:50.032Z,13.23
2023-01-05T09:57:25.420Z,12.97
2023-01-05T09:59:58.747Z,13.07
2023-01-05T10:02:59.156Z,13.36
2023-01-05T10:05:27.969Z,13.50
2023-01-05T10:08:03.552Z,13.54
2023-01-05T10:11:20.819Z,13.48
2023-01-05T10:14:15.777Z,13.54
2023-01-05T10:16:45.545Z,13.41
2023-01-05T10:19:18.987Z,13.40
2023-01-05T10:22:06.421Z,13.43
2023-01-05T10:25:20.263Z,13.20
2023-01-05T10:28:20.520Z,13.11
2023-01-05T10:30:59.239Z,12.85
2023-01-05T10:33:56.689Z,12.92
2023-01-05T10:39:32.717Z,13.07
2023-01-05T10:42:18.311Z,13.14
2023-01-05T10:45:12.093Z,13.26
2023-01-05T10:47:40.928Z,13.25
2023-01-05T10:50:38.015Z,13.15
2023-01-05T10:53:09.169Z,13.19
2023-01-05T10:55:55.272Z,13.17
2023-01-05T10:58:23.187Z,13.22
2023-01-05T11:00:50.886Z,13.28
2023-01-05T11:03:19.425Z,13.05
2023-01-05T11:05:48.310Z,13.29
2023-01-05T11:08:19.208Z,13.19
2023-01-05T11:11:00.377Z,13.25
2023-01-05T11:13:43.076Z,13.21
2023-01-05T11:16:26.673Z,13.30
2023-01-05T11:19:14.686Z,12.95
2023-01-05T11:21:47.859Z,13.15
2023-01-05T11:24:23.975Z,13.05
2023-01-05T11:27:00.043Z,13.43
2023-01-05T11:29:27.740Z,13.78
2023-01-05T11:32:00.460Z,14.11
2023-01-05T11:34:49.581Z,14.07
2023-01-05T11:37:28.524Z,14.32
2023-01-05T11:40:04.691Z,14.38
2023-01-05T11:42:34.796Z,14.44
2023-01-05T11:45:08.036Z,14.37
2023-01-05T11:47:44.716Z,14.29
2023-01-05T11:50:18.525Z,14.18
2023-01-05T11:52:52.181Z,14.10
2023-01-05T11:55:30.422Z,14.23
2023-01-05T11:58:25.538Z,14.30
2023-01-05T12:01:25.380Z,14.22
2023-01-05T12:04:23.327Z,14.13
2023-01-05T12:07:20.524Z,14.07
2023-01-05T12:10:18.764Z,13.99
2023-01-05T12:13:08.809Z,13.71
2023-01-05T12:16:07.410Z,13.67
2023-01-05T12:19:06.302Z,13.38
2023-01-05T12:21:39.911Z,13.55
2023-01-05T12:24:39.013Z,13.61
2023-01-05T12:27:47.297Z,13.62
2023-01-05T12:36:23.651Z,13.61
2023-01-05T12:39:20.115Z,13.76
2023-01-05T12:42:48.631Z,13.47
2023-01-05T12:45:32.149Z,13.41
2023-01-05T12:48:33.832Z,13.56
2023-01-05T12:51:34.995Z,13.49
2023-01-05T12:54:07.282Z,12.88
2023-01-05T12:56:51.487Z,13.22
2023-01-05T12:59:32.539Z,13.51
2023-01-05T13:02:20.649Z,13.48
2023-01-05T13:05:19.768Z,13.66
2023-01-05T13:08:02.194Z,13.26
2023-01-05T13:10:57.624Z,13.33
2023-01-05T13:13:35.079Z,13.08
2023-01-05T13:16:20.204Z,13.32
2023-01-05T13:19:02.462Z,13.24
2023-01-05T13:21:30.842Z,13.44
2023-01-05T13:24:09.089Z,13.46
2023-01-05T13:26:38.453Z,13.31
2023-01-05T13:29:05.589Z,13.22
2023-01-05T13:31:44.281Z,13.33
2023-01-05T13:34:17.572Z,13.55
2023-01-05T13:37:26.655Z,13.38
2023-01-05T13:40:28.797Z,13.23
2023-01-05T13:43:19.864Z,13.24
2023-01-05T13:46:26.635Z,13.27
2023-01-05T13:52:55.481Z,13.11
2023-01-05T13:55:26.078Z,13.25
2023-01-05T13:57:55.684Z,13.03
2023-01-05T14:00:41.705Z,13.15
2023-01-05T14:03:29.101Z,13.16
2023-01-05T14:06:03.163Z,12.99
2023-01-05T14:08:38.363Z,13.30
2023-01-05T14:11:19.286Z,13.39
2023-01-05T14:14:00.102Z,13.19
2023-01-05T14:16:37.443Z,12.99
2023-01-05T14:19:28.231Z,13.15
2023-01-05T14:21:59.612Z,13.30
2023-01-05T14:24:47.459Z,13.13
2023-01-05T14:27:22.745Z,13.16
2023-01-05T14:29:52.760Z,13.08
2023-01-05T14:32:37.013Z,13.13
2023-01-05T14:35:30.687Z,13.22
2023-01-05T14:38:07.258Z,13.17
2023-01-05T14:40:55.464Z,13.19
2023-01-05T14:43:33.986Z,13.03
2023-01-05T14:46:11.738Z,12.98
2023-01-05T14:49:05.325Z,13.06
2023-01-05T14:51:34.612Z,13.15
2023-01-05T14:54:04.861Z,13.14
2023-01-05T14:56:35.120Z,13.06
2023-01-05T14:59:26.055Z,13.11
2023-01-05T15:02:03.440Z,12.95
2023-01-05T15:04:35.727Z,13.10
2023-01-05T15:07:42.051Z,12.84
2023-01-05T15:10:55.598Z,12.98
2023-01-05T15:13:37.390Z,13.01
2023-01-05T15:16:22.709Z,13.09
2023-01-05T15:18:59.265Z,13.11
2023-01-05T15:21:41.079Z,12.94
2023-01-05T15:24:49.594Z,13.00
2023-01-05T15:28:04.935Z,13.11
2023-01-05T15:34:14.484Z,13.09
2023-01-05T15:36:56.238Z,12.98
2023-01-05T15:39:29.944Z,12.95
2023-01-05T15:42:01.555Z,12.89
2023-01-05T15:44:37.328Z,13.07
2023-01-05T15:47:05.284Z,12.68
2023-01-05T15:49:34.067Z,12.99
2023-01-05T15:52:01.276Z,12.79
2023-01-05T15:54:31.820Z,12.85
2023-01-05T15:57:00.959Z,12.83
2023-01-05T15:59:40.751Z,12.82
2023-01-05T16:02:29.964Z,12.94
2023-01-05T16:05:14.131Z,12.76
2023-01-05T16:07:51.345Z,12.70
2023-01-05T16:10:22.985Z,12.76
2023-01-05T16:12:55.479Z,12.57
2023-01-05T16:15:24.104Z,12.53
2023-01-05T16:17:55.238Z,12.55
2023-01-05T16:20:24.978Z,12.52
2023-01-05T16:23:08.770Z,12.43
2023-01-05T16:25:47.828Z,12.34
2023-01-05T16:28:20.528Z,12.30
2023-01-05T16:30:49.697Z,12.28
2023-01-05T16:33:36.268Z,12.15
2023-01-05T16:36:22.743Z,12.11
2023-01-05T16:38:49.887Z,12.09
2023-01-05T16:41:26.400Z,11.99
2023-01-05T16:44:00.279Z,12.01
2023-01-05T16:46:37.265Z,12.02
2023-01-05T16:49:32.014Z,11.84
2023-01-05T16:51:59.656Z,11.93
2023-01-05T16:54:44.152Z,12.01
2023-01-05T16:57:41.014Z,11.98
2023-01-05T17:00:26.166Z,11.89
2023-01-05T17:02:58.220Z,11.89
2023-01-05T17:05:29.976Z,11.84
2023-01-05T17:08:21.288Z,11.78
2023-01-05T17:10:49.140Z,11.74
2023-01-05T17:13:23.363Z,11.74
2023-01-05T17:15:52.862Z,11.75
2023-01-05T17:18:28.599Z,11.77
2023-01-05T17:20:57.653Z,11.78
2023-01-05T17:23:27.007Z,11.83
2023-01-05T17:25:56.839Z,11.85
2023-01-05T17:28:24.714Z,11.86
2023-01-05T17:30:52.705Z,11.90
2023-01-05T17:33:19.920Z,11.92
2023-01-05T17:38:20.113Z,12.04
2023-01-05T17:40:46.964Z,12.04
2023-01-05T17:43:14.958Z,12.01
2023-01-05T17:45:43.998Z,12.04
2023-01-05T17:50:44.340Z,11.99
2023-01-05T17:53:11.515Z,12.00
2023-01-05T17:55:38.702Z,12.00
2023-01-05T17:58:05.708Z,12.02
2023-01-05T18:00:34.995Z,12.07
2023-01-05T18:03:01.856Z,12.03
2023-01-05T18:05:28.997Z,12.00
2023-01-05T18:07:55.999Z,12.04
2023-01-05T18:10:26.824Z,12.02
2023-01-05T18:12:55.793Z,12.02
2023-01-05T18:15:22.685Z,12.05
2023-01-05T18:17:49.536Z,12.08
2023-01-05T18:20:21.537Z,12.07
2023-01-05T18:22:49.461Z,12.13
2023-01-05T18:25:17.328Z,12.15
2023-01-05T18:27:44.439Z,12.13
2023-01-05T18:30:12.939Z,12.12
2023-01-05T18:32:40.474Z,12.13
2023-01-05T18:35:10.177Z,12.03
2023-01-05T18:37:39.132Z,12.07
2023-01-05T18:40:07.787Z,12.03
2023-01-05T18:42:36.277Z,12.00
2023-01-05T18:45:13.967Z,12.02
2023-01-05T18:47:46.877Z,12.04
2023-01-05T18:50:13.871Z,12.07
2023-01-05T18:52:40.811Z,12.07
2023-01-05T18:55:07.988Z,12.08
2023-01-05T18:57:35.965Z,12.10
2023-01-05T19:00:04.679Z,12.09
2023-01-05T19:02:31.833Z,12.09
2023-01-05T19:04:58.799Z,12.13
2023-01-05T19:07:25.673Z,12.11
2023-01-05T19:09:53.317Z,12.09
2023-01-05T19:12:20.249Z,12.12
2023-01-05T19:14:47.090Z,12.07
2023-01-05T19:17:13.977Z,12.07
2023-01-05T19:19:41.111Z,12.05
2023-01-05T19:22:07.971Z,12.14
2023-01-05T19:24:35.500Z,12.14
2023-01-05T19:27:02.366Z,12.16
2023-01-05T19:29:29.326Z,12.01
2023-01-05T19:31:56.204Z,11.91
2023-01-05T19:34:23.057Z,12.04
2023-01-05T19:36:49.947Z,12.01
2023-01-05T19:39:20.817Z,12.01
2023-01-05T19:41:51.256Z,11.89
2023-01-05T19:44:21.039Z,11.84
2023-01-05T19:46:51.868Z,11.80
2023-01-05T19:49:22.797Z,11.72
2023-01-05T19:51:50.282Z,11.61
2023-01-05T19:54:18.200Z,11.33
2023-01-05T19:56:45.689Z,11.35
2023-01-05T19:59:32.833Z,11.20
2023-01-05T20:02:04.937Z,11.12
2023-01-05T20:04:32.925Z,11.08
2023-01-05T20:07:04.001Z,11.00
2023-01-05T20:09:31.283Z,10.95
2023-01-05T20:12:09.109Z,10.76
2023-01-05T20:14:39.972Z,10.82
2023-01-05T20:17:10.266Z,10.87
2023-01-05T20:19:38.726Z,10.91
2023-01-05T20:22:07.791Z,10.95
2023-01-05T20:24:37.219Z,11.01
2023-01-05T20:27:08.953Z,11.04
2023-01-05T20:29:37.119Z,11.15
2023-01-05T20:32:09.347Z,11.22
2023-01-05T20:34:39.199Z,11.19
2023-01-05T20:37:09.322Z,11.30
2023-01-05T20:39:39.135Z,11.33
2023-01-05T20:42:06.536Z,11.35
2023-01-05T20:44:37.679Z,11.41
2023-01-05T20:47:06.788Z,11.47
2023-01-05T20:49:36.199Z,11.49
2023-01-05T20:52:04.505Z,11.50
2023-01-05T20:54:31.560Z,11.51
2023-01-05T20:56:58.845Z,11.59
2023-01-05T20:59:32.717Z,11.57
2023-01-05T21:02:00.666Z,11.66
2023-01-05T21:04:30.325Z,11.71
2023-01-05T21:07:01.083Z,11.68
2023-01-05T21:09:31.488Z,11.75
2023-01-05T21:12:00.072Z,11.73
2023-01-05T21:14:26.911Z,11.89
2023-01-05T21:16:55.149Z,11.92
2023-01-05T21:19:24.169Z,11.95
2023-01-05T21:21:55.531Z,11.99
2023-01-05T21:24:24.093Z,11.97
2023-01-05T21:26:51.264Z,11.93
2023-01-05T21:29:22.135Z,11.82
2023-01-05T21:31:50.465Z,11.79
2023-01-05T21:34:17.613Z,11.69
2023-01-05T21:36:45.814Z,11.65
2023-01-05T21:39:24.704Z,11.60
2023-01-05T21:42:11.619Z,11.38
2023-01-05T21:44:39.763Z,11.62
2023-01-05T21:47:13.936Z,11.55
2023-01-05T21:49:40.824Z,11.68
2023-01-05T21:52:25.990Z,11.68
2023-01-05T21:55:11.205Z,11.68
2023-01-05T21:57:38.095Z,11.62
2023-01-05T22:00:06.741Z,11.54
2023-01-05T22:02:33.587Z,11.37
2023-01-05T22:05:00.394Z,11.70
2023-01-05T22:07:27.388Z,11.71
2023-01-05T22:09:54.322Z,11.73
2023-01-05T22:12:21.146Z,11.71
2023-01-05T22:14:47.942Z,11.73
2023-01-05T22:17:14.900Z,11.61
2023-01-05T22:19:41.716Z,11.58
2023-01-05T22:22:08.496Z,11.42
2023-01-05T22:24:35.400Z,11.50
2023-01-05T22:27:02.257Z,11.62
2023-01-05T22:29:29.185Z,11.66
2023-01-05T22:31:56.114Z,11.63
2023-01-05T22:34:23.011Z,11.62
2023-01-05T22:36:50.195Z,11.56
2023-01-05T22:39:17.287Z,11.54
2023-01-05T22:41:45.497Z,11.58
2023-01-05T22:44:12.651Z,11.63
2023-01-05T22:46:39.505Z,11.63
2023-01-05T22:49:06.485Z,11.65
2023-01-05T22:51:37.082Z,11.59
2023-01-05T22:54:05.294Z,11.63
2023-01-05T22:56:33.513Z,11.70
2023-01-05T22:59:01.588Z,11.70
2023-01-05T23:01:43.443Z,11.69
2023-01-05T23:04:11.360Z,11.72
2023-01-05T23:06:38.434Z,11.66
2023-01-05T23:09:08.104Z,11.70
2023-01-05T23:11:38.740Z,11.73
2023-01-05T23:14:09.408Z,11.78
2023-01-05T23:16:36.799Z,11.84
2023-01-05T23:19:05.993Z,11.83
2023-01-05T23:21:33.055Z,11.78
2023-01-05T23:24:00.230Z,11.82
2023-01-05T23:26:28.439Z,11.83
2023-01-05T23:28:55.757Z,11.82
2023-01-05T23:31:23.294Z,11.80
2023-01-05T23:33:50.197Z,11.81
2023-01-05T23:36:18.892Z,11.80
2023-01-05T23:38:46.898Z,11.80
2023-01-05T23:41:16.055Z,11.88
2023-01-05T23:43:49.263Z,11.81
2023-01-05T23:46:20.284Z,11.80
2023-01-05T23:48:49.094Z,11.85
2023-01-05T23:51:17.076Z,11.79
2023-01-05T23:53:47.428Z,11.84
2023-01-05T23:56:26.854Z,11.83
2023-01-05T23:59:05.464Z,11.84
